Terminal Aerodrome Forecast
Issued by NWS Portland, OR

Home | Current Version | Previous Version | Text Only | Print | Product List | Glossary On
Versions: 1 2 3 4 5 6 7 8 9 10 11 12 13 14 15
000
FTUS46 KPQR 170539
TAFAST
TAF
KAST 170539Z 1706/1806 14004KT 5SM BR SCT015 OVC025
     FM170900 18009KT 2SM -RA BR BKN007 OVC015
     FM171900 22008KT 5SM -RA BR OVC015=

USA.gov is the U.S. government's official web portal to all federal, state and local government web resources and services.